Time;durP1;ratioP1;P1;durP2;ratioP2;P2;SDS_P1;SDS_P2;PMS_P1;PMS_P2;Temp;Humidity;BMP_temperature;BMP_pressure;BME280_temperature;BME280_humidity;BME280_pressure;Samples;Min_cycle;Max_cycle;Signal;HPM_P1;HPM_P2
2022/11/20 00:01:21;;;;;;;13.20;7.05;;;;;;;-0.92;69.81;100022.00;6171631;23;20019;-82
2022/11/20 00:03:47;;;;;;;13.43;7.50;;;;;;;-0.65;69.14;100046.91;6181688;23;20070;-83
2022/11/20 00:06:15;;;;;;;15.23;8.07;;;;;;;-0.70;69.74;100051.84;6185107;23;20020;-82
2022/11/20 00:08:42;;;;;;;15.63;7.60;;;;;;;-0.70;68.87;100040.75;6197620;23;20017;-81
2022/11/20 00:11:11;;;;;;;15.68;8.63;;;;;;;-0.57;70.36;100063.44;6189698;23;20029;-81
2022/11/20 00:13:37;;;;;;;15.55;7.65;;;;;;;-0.40;70.24;100070.91;6194830;23;20013;-80
2022/11/20 00:16:05;;;;;;;14.80;7.65;;;;;;;-0.35;69.40;100061.72;6195990;23;20016;-82
2022/11/20 00:18:34;;;;;;;13.95;6.88;;;;;;;-0.33;70.11;100070.34;6143329;23;20023;-80
2022/11/20 00:21:03;;;;;;;13.38;6.47;;;;;;;-0.53;70.54;100026.97;6192296;23;20104;-83
2022/11/20 00:23:29;;;;;;;10.80;6.63;;;;;;;-0.51;70.31;100012.56;6192811;23;20363;-85
2022/11/20 00:25:55;;;;;;;12.82;6.25;;;;;;;-0.70;69.64;100003.28;6191796;23;20475;-80
2022/11/20 00:28:21;;;;;;;11.77;7.03;;;;;;;-0.28;69.06;100083.31;6094517;23;20021;-81
2022/11/20 00:30:48;;;;;;;13.23;6.88;;;;;;;-0.58;69.81;99987.56;6196576;23;20016;-80
2022/11/20 00:33:14;;;;;;;13.05;6.90;;;;;;;-0.27;69.64;100023.66;6173763;23;20048;-82
2022/11/20 00:35:40;;;;;;;13.98;7.57;;;;;;;0.10;70.38;100061.75;6147851;23;20023;-81
2022/11/20 00:38:06;;;;;;;12.85;7.40;;;;;;;0.13;69.92;100061.00;6170439;23;20021;-83
2022/11/20 00:40:32;;;;;;;13.70;7.72;;;;;;;-0.71;69.25;99967.44;6142122;23;20522;-81
2022/11/20 00:42:59;;;;;;;14.30;8.48;;;;;;;-1.44;69.78;99824.09;6174020;23;20021;-84
2022/11/20 00:45:25;;;;;;;25.98;16.20;;;;;;;-0.39;69.13;100017.28;6189095;23;20076;-85
2022/11/20 00:47:51;;;;;;;28.75;18.25;;;;;;;-0.13;69.38;100037.88;6163460;23;20335;-82
2022/11/20 00:50:18;;;;;;;25.90;16.42;;;;;;;-0.08;69.98;100031.22;6190303;23;20108;-80
2022/11/20 00:52:44;;;;;;;19.17;13.57;;;;;;;-0.12;70.00;100031.06;6139464;23;20017;-82
2022/11/20 00:55:10;;;;;;;18.88;10.75;;;;;;;0.07;69.29;100060.78;6164264;23;20071;-82
2022/11/20 00:57:36;;;;;;;13.85;8.15;;;;;;;-0.36;69.92;100039.53;6162972;23;20012;-80
2022/11/20 01:00:02;;;;;;;13.57;7.55;;;;;;;-0.61;69.67;99993.44;6138229;23;20016;-83
2022/11/20 01:02:31;;;;;;;11.05;6.78;;;;;;;-0.18;69.82;100070.94;6163194;23;20016;-80
2022/11/20 01:04:58;;;;;;;11.35;5.72;;;;;;;-0.20;69.17;100053.78;6163380;23;20040;-83
2022/11/20 01:07:24;;;;;;;11.80;6.57;;;;;;;-0.34;69.30;100014.88;6162194;23;20036;-81
2022/11/20 01:09:50;;;;;;;12.10;6.43;;;;;;;0.02;69.33;100063.16;6189474;23;20122;-83
2022/11/20 01:12:16;;;;;;;18.42;10.55;;;;;;;0.12;70.14;100069.50;6162594;23;20016;-82
2022/11/20 01:14:42;;;;;;;19.88;11.32;;;;;;;0.19;69.90;100073.19;6163192;23;20078;-81
2022/11/20 01:17:09;;;;;;;23.52;13.40;;;;;;;0.10;69.53;100031.06;6164989;23;20104;-80
2022/11/20 01:19:35;;;;;;;31.02;17.92;;;;;;;0.40;70.35;100057.72;6167992;23;20082;-82
2022/11/20 01:22:01;;;;;;;14.45;8.68;;;;;;;0.34;69.71;100039.56;6171551;23;20012;-81
2022/11/20 01:24:27;;;;;;;14.98;7.70;;;;;;;0.33;69.48;100045.53;6165690;23;20481;-81
2022/11/20 01:26:53;;;;;;;12.82;7.32;;;;;;;0.44;69.64;100060.44;6187848;23;20017;-83
2022/11/20 01:29:23;;;;;;;11.38;6.82;;;;;;;0.23;69.91;100034.06;6163370;23;20112;-82
2022/11/20 01:31:49;;;;;;;13.80;7.63;;;;;;;0.32;69.56;100062.56;6190398;23;20020;-81
2022/11/20 01:34:19;;;;;;;13.00;6.80;;;;;;;0.37;69.49;100063.59;6180230;23;20001;-82
2022/11/20 01:36:45;;;;;;;12.07;6.82;;;;;;;0.40;69.65;100045.81;6169417;23;20013;-80
2022/11/20 01:39:19;;;;;;;12.40;6.47;;;;;;;0.55;68.84;100068.50;6161799;23;20067;-81
2022/11/20 01:44:54;;;;;;;13.13;7.05;;;;;;;0.53;67.83;100067.59;6163253;23;20017;-82
2022/11/20 01:47:26;;;;;;;13.35;6.80;;;;;;;0.36;68.61;100059.31;6165991;23;20099;-82
2022/11/20 01:49:58;;;;;;;11.23;6.25;;;;;;;0.30;68.30;100059.06;6146308;23;20021;-79
2022/11/20 01:52:32;;;;;;;13.30;6.70;;;;;;;0.22;67.94;100056.22;6169936;23;20025;-81
2022/11/20 01:55:05;;;;;;;11.95;7.10;;;;;;;0.33;68.67;100082.22;6171559;23;20017;-79
2022/11/20 01:57:35;;;;;;;10.63;6.28;;;;;;;0.39;69.27;100079.00;6191953;23;20027;-80
2022/11/20 02:00:09;;;;;;;10.70;6.25;;;;;;;0.35;68.99;100061.78;6160766;23;20023;-81
2022/11/20 02:02:42;;;;;;;12.48;7.03;;;;;;;0.22;68.55;100063.06;6165168;23;20056;-80
2022/11/20 02:05:17;;;;;;;12.05;6.40;;;;;;;0.35;68.57;100080.59;6213470;23;20001;-79
2022/11/20 02:07:44;;;;;;;12.10;6.70;;;;;;;0.17;68.65;100055.19;6187987;23;20022;-82
2022/11/20 02:10:11;;;;;;;10.07;5.90;;;;;;;0.31;68.96;100072.75;6208757;23;20051;-78
2022/11/20 02:15:44;;;;;;;10.10;5.68;;;;;;;0.33;68.42;100094.16;6168362;23;20016;-81
2022/11/20 02:18:13;;;;;;;11.20;6.20;;;;;;;0.44;68.77;100098.00;6190353;23;20101;-77
2022/11/20 02:20:43;;;;;;;10.18;6.00;;;;;;;0.42;68.58;100091.94;6162139;23;20021;-80
2022/11/20 02:23:22;;;;;;;9.85;6.05;;;;;;;0.59;68.48;100103.66;6185640;23;20033;-79
2022/11/20 02:25:49;;;;;;;11.13;6.20;;;;;;;0.39;68.00;100063.66;6161044;23;20396;-79
2022/11/20 02:28:17;;;;;;;9.48;5.85;;;;;;;0.52;68.01;100091.47;6161315;23;20028;-80
2022/11/20 02:30:43;;;;;;;10.27;5.90;;;;;;;0.63;67.85;100103.78;6188778;23;20103;-80
2022/11/20 02:33:11;;;;;;;8.63;5.35;;;;;;;0.65;68.24;100107.28;6162534;23;20477;-78
2022/11/20 02:35:47;;;;;;;12.38;6.57;;;;;;;0.69;68.39;100120.25;6176036;23;20027;-80
2022/11/20 02:38:14;;;;;;;11.23;6.32;;;;;;;0.66;68.16;100109.00;6180521;23;20068;-77
2022/11/20 02:40:41;;;;;;;10.75;5.97;;;;;;;0.68;67.52;100117.63;6146392;23;20025;-79
2022/11/20 02:43:08;;;;;;;10.02;5.95;;;;;;;0.64;67.40;100115.78;6165300;23;20048;-80
2022/11/20 02:45:34;;;;;;;11.32;6.00;;;;;;;0.45;67.60;100100.59;6171834;23;20020;-80
2022/11/20 02:48:00;;;;;;;10.90;5.85;;;;;;;0.40;67.52;100108.94;6169980;23;20463;-80
2022/11/20 02:50:26;;;;;;;8.98;5.60;;;;;;;0.16;67.26;100096.94;6196362;23;20021;-80
2022/11/20 02:52:53;;;;;;;10.45;5.70;;;;;;;0.19;68.01;100097.06;6166085;23;20019;-80
2022/11/20 02:55:19;;;;;;;9.95;5.78;;;;;;;0.43;67.91;100124.41;6196581;23;20024;-79
2022/11/20 02:57:45;;;;;;;9.90;6.05;;;;;;;0.45;67.67;100123.63;6172640;23;20036;-80
2022/11/20 03:00:11;;;;;;;11.02;6.25;;;;;;;0.48;67.63;100124.56;6116247;23;20036;-80
2022/11/20 03:02:37;;;;;;;11.30;6.15;;;;;;;0.28;67.50;100087.19;6180651;23;20028;-79
2022/11/20 03:05:04;;;;;;;12.43;6.70;;;;;;;0.25;67.76;100089.63;6188987;23;19993;-79
2022/11/20 03:07:30;;;;;;;9.70;6.38;;;;;;;0.17;68.02;100062.84;6187316;23;20029;-79
2022/11/20 03:09:56;;;;;;;13.15;6.40;;;;;;;0.27;67.47;100090.56;6211647;23;20025;-80
2022/11/20 03:12:23;;;;;;;8.88;5.95;;;;;;;0.38;68.11;100097.75;6184819;23;20005;-79
2022/11/20 03:14:49;;;;;;;8.98;5.80;;;;;;;0.28;67.96;100059.03;6211203;23;20036;-80
2022/11/20 03:17:16;;;;;;;11.10;6.15;;;;;;;0.50;67.46;100105.91;6213432;23;19997;-79
2022/11/20 03:19:42;;;;;;;13.02;6.50;;;;;;;0.67;67.64;100128.69;6187061;23;19997;-79
2022/11/20 03:22:10;;;;;;;11.88;5.93;;;;;;;0.62;67.60;100135.34;6212436;23;20086;-81
2022/11/20 03:24:36;;;;;;;9.98;6.00;;;;;;;0.66;67.55;100139.75;6213253;23;19997;-81
2022/11/20 03:27:02;;;;;;;9.45;5.70;;;;;;;0.55;67.12;100135.09;6213356;23;20021;-79
2022/11/20 03:29:28;;;;;;;10.52;5.80;;;;;;;0.32;67.04;100095.84;6187280;23;20024;-80
2022/11/20 03:31:54;;;;;;;9.48;5.75;;;;;;;0.48;67.40;100124.56;6211985;23;20033;-78
2022/11/20 03:34:20;;;;;;;9.20;5.72;;;;;;;0.60;67.22;100135.28;6196497;23;20025;-79
2022/11/20 03:36:47;;;;;;;9.88;5.80;;;;;;;0.36;67.30;100104.50;6139332;23;20494;-81
2022/11/20 03:39:13;;;;;;;9.98;6.25;;;;;;;0.53;65.83;100141.00;6163976;23;20024;-82
2022/11/20 03:41:41;;;;;;;7.57;5.13;;;;;;;0.14;65.97;100088.34;6164079;23;20021;-80
2022/11/20 03:44:09;;;;;;;11.65;6.07;;;;;;;0.29;67.32;100131.56;6189600;23;20013;-79
2022/11/20 03:46:36;;;;;;;10.70;5.80;;;;;;;0.45;67.09;100146.69;6190623;23;20092;-80
2022/11/20 03:49:03;;;;;;;10.13;5.70;;;;;;;0.43;67.16;100150.91;6163452;23;20068;-79
2022/11/20 03:51:34;;;;;;;10.65;6.25;;;;;;;0.24;65.65;100140.75;6189788;23;20036;-81
2022/11/20 03:54:03;;;;;;;10.18;5.13;;;;;;;0.16;65.64;100158.38;6189492;23;20024;-80
2022/11/20 03:56:31;;;;;;;10.75;5.80;;;;;;;0.11;66.48;100154.78;6163379;23;20020;-79
2022/11/20 03:58:59;;;;;;;9.07;5.53;;;;;;;0.02;67.34;100144.19;6189133;23;20017;-81
2022/11/20 04:01:27;;;;;;;10.80;5.93;;;;;;;0.04;67.12;100145.13;6163315;23;20013;-81
2022/11/20 04:03:55;;;;;;;11.07;6.00;;;;;;;0.07;66.67;100145.25;6189234;23;20454;-81
2022/11/20 04:06:27;;;;;;;10.07;5.63;;;;;;;0.10;66.46;100168.41;6163434;23;20017;-80
2022/11/20 04:08:58;;;;;;;11.77;6.80;;;;;;;-0.12;65.72;100177.78;6139432;23;20027;-80
2022/11/20 04:11:25;;;;;;;10.75;6.28;;;;;;;-0.27;66.75;100149.00;6115394;23;20025;-80
2022/11/20 04:13:57;;;;;;;11.07;6.18;;;;;;;-0.05;67.68;100161.84;6189417;23;20021;-80
2022/11/20 04:16:25;;;;;;;14.13;7.40;;;;;;;0.05;67.04;100175.88;6140200;23;20123;-80
2022/11/20 04:18:53;;;;;;;12.52;6.65;;;;;;;-0.25;66.84;100116.69;6163925;23;20104;-80
2022/11/20 04:21:20;;;;;;;12.75;7.18;;;;;;;0.22;67.63;100173.97;6190388;23;20060;-80
2022/11/20 04:23:46;;;;;;;14.73;7.53;;;;;;;0.01;66.29;100153.53;6199640;23;20016;-80
2022/11/20 04:26:12;;;;;;;13.48;6.65;;;;;;;0.12;66.52;100188.09;6163506;23;20021;-81
2022/11/20 04:28:39;;;;;;;10.20;6.22;;;;;;;-0.20;66.93;100135.66;6176279;23;20021;-80
2022/11/20 04:31:10;;;;;;;11.50;6.45;;;;;;;0.09;67.38;100179.44;6163501;23;20001;-80
2022/11/20 04:33:36;;;;;;;10.52;5.68;;;;;;;-0.19;66.15;100155.31;6214506;23;20001;-81
2022/11/20 04:36:14;;;;;;;13.98;7.30;;;;;;;0.10;66.60;100199.97;6183516;23;20025;-80
2022/11/20 04:38:42;;;;;;;12.85;6.45;;;;;;;0.06;66.69;100189.56;6168740;23;20091;-81
2022/11/20 04:41:14;;;;;;;11.55;7.05;;;;;;;-0.10;67.15;100153.09;6177336;23;20028;-79
2022/11/20 04:43:40;;;;;;;10.90;7.22;;;;;;;-0.32;67.06;100121.53;6159574;23;20028;-81
2022/11/20 04:46:07;;;;;;;10.85;6.53;;;;;;;0.13;66.56;100178.72;6189512;23;20467;-80
2022/11/20 04:48:35;;;;;;;10.18;6.25;;;;;;;0.33;66.64;100212.81;6161603;23;20017;-79
2022/11/20 04:51:04;;;;;;;10.85;6.72;;;;;;;0.28;66.59;100194.72;6189329;23;20022;-81
2022/11/20 04:53:30;;;;;;;10.07;6.10;;;;;;;0.40;66.59;100216.47;6162781;23;20068;-82
2022/11/20 04:56:05;;;;;;;11.60;6.43;;;;;;;0.38;66.04;100218.97;6189196;23;20012;-81
2022/11/20 04:58:31;;;;;;;10.20;5.70;;;;;;;0.29;65.92;100231.41;6189469;23;20020;-83
2022/11/20 05:01:21;;;;;;;13.02;6.25;;;;;;;0.16;66.69;100190.78;6190893;23;20044;-83
2022/11/20 05:03:47;;;;;;;11.95;5.80;;;;;;;0.26;66.59;100208.25;6165838;23;20044;-80
2022/11/20 05:06:15;;;;;;;10.13;5.00;;;;;;;0.29;66.26;100236.53;6192618;23;20028;-81
2022/11/20 05:08:41;;;;;;;10.55;5.32;;;;;;;-0.08;65.67;100181.31;6164886;23;20103;-81
2022/11/20 05:11:13;;;;;;;10.23;5.55;;;;;;;0.27;66.47;100230.47;6168473;23;20028;-82
2022/11/20 05:13:40;;;;;;;11.60;6.30;;;;;;;0.29;65.36;100231.41;6189953;23;20021;-81
2022/11/20 05:16:09;;;;;;;13.88;6.55;;;;;;;-1.00;66.12;100001.25;6189041;23;20009;-82
2022/11/20 05:18:36;;;;;;;10.50;5.35;;;;;;;0.18;66.43;100202.81;6166033;23;20016;-82
2022/11/20 05:21:02;;;;;;;9.93;5.70;;;;;;;-0.34;66.03;100115.53;6164059;23;20021;-81
2022/11/20 05:23:31;;;;;;;11.20;6.10;;;;;;;0.10;66.14;100194.84;6138968;23;20104;-81
2022/11/20 05:25:58;;;;;;;11.38;5.30;;;;;;;0.40;65.22;100254.88;6163568;23;20017;-81
2022/11/20 05:28:25;;;;;;;11.98;5.60;;;;;;;0.29;65.93;100251.91;6164263;23;20099;-81
2022/11/20 05:30:52;;;;;;;11.45;5.53;;;;;;;0.16;65.48;100227.50;6141242;23;20021;-80
2022/11/20 05:33:22;;;;;;;9.50;5.70;;;;;;;0.42;65.56;100268.63;6150846;23;20020;-81
2022/11/20 05:35:48;;;;;;;10.38;6.18;;;;;;;0.40;65.97;100248.09;6122474;23;20036;-82
2022/11/20 05:38:16;;;;;;;11.23;6.07;;;;;;;0.25;65.56;100220.19;6195483;23;20009;-80
2022/11/20 05:40:42;;;;;;;11.02;5.47;;;;;;;0.39;65.31;100248.91;6188229;23;20359;-80
2022/11/20 05:43:09;;;;;;;12.50;6.55;;;;;;;0.36;65.12;100263.25;6163602;23;20025;-82
2022/11/20 05:45:35;;;;;;;12.82;6.00;;;;;;;0.43;65.86;100271.25;6161713;23;20308;-80
2022/11/20 05:48:01;;;;;;;9.75;5.78;;;;;;;0.27;65.07;100254.41;6187009;23;20019;-80
2022/11/20 05:50:28;;;;;;;10.57;5.78;;;;;;;0.25;65.50;100248.34;6138442;23;20045;-81
2022/11/20 05:52:55;;;;;;;10.60;6.10;;;;;;;0.30;64.90;100258.75;6188051;23;20048;-81
2022/11/20 05:55:20;;;;;;;10.70;5.85;;;;;;;0.17;65.05;100228.38;6188041;23;20021;-82
2022/11/20 05:57:46;;;;;;;10.45;5.57;;;;;;;0.44;64.09;100293.47;6162167;23;20013;-82
2022/11/20 06:00:13;;;;;;;12.15;6.70;;;;;;;0.33;64.96;100299.00;6162549;23;20098;-81
2022/11/20 06:02:39;;;;;;;13.13;6.43;;;;;;;-0.05;62.97;100305.13;6181122;23;20027;-78
2022/11/20 06:05:06;;;;;;;12.35;6.93;;;;;;;-0.41;63.93;100259.28;6180748;23;20077;-79
2022/11/20 06:07:32;;;;;;;11.85;6.35;;;;;;;-0.77;65.14;100204.06;6193943;23;20048;-83
2022/11/20 06:10:01;;;;;;;10.80;6.78;;;;;;;-0.38;64.80;100282.44;6166353;23;20072;-82
2022/11/20 06:12:30;;;;;;;12.18;6.90;;;;;;;-0.22;65.76;100271.16;6192998;23;20021;-82
2022/11/20 06:14:56;;;;;;;14.57;7.30;;;;;;;-0.08;64.76;100268.31;6141075;23;20047;-81
2022/11/20 06:17:22;;;;;;;11.30;6.70;;;;;;;-0.07;65.17;100260.69;6189539;23;20013;-81
2022/11/20 06:19:48;;;;;;;13.90;7.47;;;;;;;0.33;65.41;100307.53;6163595;23;20027;-81
2022/11/20 06:22:15;;;;;;;15.45;7.15;;;;;;;0.34;65.02;100328.88;6164555;23;20075;-81
2022/11/20 06:24:44;;;;;;;12.02;6.47;;;;;;;0.01;64.97;100267.81;6188073;23;20023;-82
2022/11/20 06:27:10;;;;;;;11.75;6.72;;;;;;;0.49;65.84;100337.22;6164134;23;20025;-81
2022/11/20 06:29:36;;;;;;;12.52;6.38;;;;;;;0.42;65.12;100314.72;6140786;23;20020;-83
2022/11/20 06:32:03;;;;;;;12.93;6.88;;;;;;;0.13;64.65;100264.09;6136723;23;20020;-82
2022/11/20 06:34:29;;;;;;;12.25;6.80;;;;;;;0.65;64.43;100342.94;6186866;23;20017;-82
2022/11/20 06:36:54;;;;;;;14.98;7.20;;;;;;;-0.07;64.76;100232.53;6186928;23;20017;-80
2022/11/20 06:39:21;;;;;;;14.82;7.13;;;;;;;0.49;63.31;100333.75;6162283;23;20017;-81
2022/11/20 06:41:47;;;;;;;12.48;7.15;;;;;;;0.53;64.43;100348.44;6162131;23;20048;-80
2022/11/20 06:44:16;;;;;;;13.10;7.05;;;;;;;0.56;64.26;100325.53;6163375;23;20078;-83
2022/11/20 06:46:42;;;;;;;14.48;7.15;;;;;;;0.48;64.55;100298.72;6163174;23;20028;-81
2022/11/20 06:49:07;;;;;;;13.32;7.05;;;;;;;-0.23;63.94;100167.09;6196300;23;20021;-82
2022/11/20 06:51:33;;;;;;;13.23;7.30;;;;;;;0.27;63.78;100261.19;6172327;23;20028;-81
2022/11/20 06:54:00;;;;;;;12.55;6.82;;;;;;;0.56;64.63;100330.66;6183972;23;20095;-81
2022/11/20 06:56:27;;;;;;;14.25;7.03;;;;;;;0.39;64.01;100278.75;6185731;23;20044;-81
2022/11/20 06:58:53;;;;;;;14.27;6.90;;;;;;;0.75;64.45;100312.63;6211247;23;20021;-81
2022/11/20 07:01:19;;;;;;;15.88;8.10;;;;;;;0.90;63.68;100355.91;6176321;23;20451;-87
2022/11/20 07:03:49;;;;;;;15.98;7.78;;;;;;;0.69;64.20;100316.63;6166127;23;20024;-82
2022/11/20 07:06:16;;;;;;;12.43;7.18;;;;;;;0.02;62.93;100243.97;6192875;23;20021;-82
2022/11/20 07:08:50;;;;;;;14.48;7.90;;;;;;;-0.09;63.77;100203.47;6143767;23;20485;-82
2022/11/20 07:11:24;;;;;;;17.27;7.47;;;;;;;-0.49;64.55;100120.00;6147033;23;20029;-80
2022/11/20 07:13:50;;;;;;;16.75;7.55;;;;;;;0.23;64.33;100237.16;6168893;23;20017;-82
2022/11/20 07:16:17;;;;;;;15.55;8.18;;;;;;;0.73;63.26;100346.69;6198892;23;20032;-82
2022/11/20 07:18:59;;;;;;;17.67;10.43;;;;;;;-0.65;63.72;100109.16;6145565;23;20017;-82
2022/11/20 07:21:26;;;;;;;16.20;9.00;;;;;;;0.86;64.31;100369.41;6166928;23;20023;-82
2022/11/20 07:23:52;;;;;;;15.95;8.45;;;;;;;0.56;64.05;100270.03;6139765;23;20028;-87
2022/11/20 07:26:21;;;;;;;14.52;7.40;;;;;;;1.11;63.73;100349.88;6140962;23;20049;-85
2022/11/20 07:28:52;;;;;;;12.38;7.10;;;;;;;0.38;63.68;100223.22;6140111;23;20017;-83
2022/11/20 07:31:48;;;;;;;;;;;;;;;;;;;;;
2022/11/20 07:37:46;;;;;;;16.55;8.52;;;;;;;0.02;63.03;100146.75;6160951;23;20072;-82
2022/11/20 07:40:26;;;;;;;15.55;8.68;;;;;;;0.39;62.92;100228.41;6150316;23;20044;-83
2022/11/20 07:42:56;;;;;;;18.00;8.77;;;;;;;1.10;63.35;100331.88;6146745;23;20044;-81
2022/11/20 07:45:30;;;;;;;16.08;8.57;;;;;;;0.34;62.79;100223.91;6199341;23;20451;-83
2022/11/20 07:47:57;;;;;;;14.98;7.78;;;;;;;0.26;63.33;100205.69;6170521;23;20044;-80
2022/11/20 07:50:23;;;;;;;15.85;7.97;;;;;;;0.67;63.01;100267.88;6169932;23;20024;-84
2022/11/20 07:52:49;;;;;;;16.25;8.70;;;;;;;1.28;62.90;100368.47;6145521;23;20021;-83
2022/11/20 07:55:15;;;;;;;15.40;8.02;;;;;;;1.29;62.80;100349.69;6171326;23;20081;-83
2022/11/20 07:57:44;;;;;;;15.88;8.32;;;;;;;0.20;62.21;100152.56;6196238;23;20083;-82
2022/11/20 08:00:16;;;;;;;14.90;7.50;;;;;;;0.19;63.02;100145.69;6194127;23;20073;-80
2022/11/20 08:02:43;;;;;;;13.98;7.93;;;;;;;1.62;61.95;100358.59;6171586;23;20020;-81
2022/11/20 08:05:10;;;;;;;15.75;7.70;;;;;;;1.21;62.26;100294.69;6121620;23;20027;-82
2022/11/20 08:07:41;;;;;;;15.82;8.55;;;;;;;1.37;62.17;100357.69;6165959;23;20104;-80
2022/11/20 08:10:13;;;;;;;16.88;8.63;;;;;;;1.46;60.82;100380.22;6140806;23;20471;-83
2022/11/20 08:15:32;;;;;;;20.48;10.88;;;;;;;0.46;60.47;100321.72;6166476;23;20063;-84
2022/11/20 08:18:10;;;;;;;19.02;10.68;;;;;;;0.75;62.10;100363.00;6141737;23;20024;-85
2022/11/20 08:20:53;;;;;;;17.98;10.77;;;;;;;1.04;62.53;100388.88;6141409;23;20016;-83
2022/11/20 08:23:33;;;;;;;14.80;7.75;;;;;;;0.34;62.04;100270.00;6138300;23;20017;-80
2022/11/20 08:25:59;;;;;;;15.38;8.50;;;;;;;0.92;62.92;100342.28;6166475;23;20076;-79
2022/11/20 08:28:25;;;;;;;14.80;7.68;;;;;;;1.26;62.12;100399.97;6167716;23;20042;-82
2022/11/20 08:30:58;;;;;;;15.27;8.73;;;;;;;0.98;62.04;100339.97;6144127;23;20055;-81
2022/11/20 08:33:33;;;;;;;;;;;;;;;1.35;62.18;100395.22;6140640;23;20036;-81
2022/11/20 08:36:47;;;;;;;15.75;8.90;;;;;;;1.16;61.12;100409.91;6139951;23;19912;-77
2022/11/20 08:39:17;;;;;;;20.80;10.32;;;;;;;-0.51;60.43;100158.28;6138864;23;20045;-81
2022/11/20 08:41:47;;;;;;;19.95;10.13;;;;;;;0.56;62.57;100352.00;6138903;23;20017;-85
2022/11/20 08:44:19;;;;;;;18.77;9.20;;;;;;;0.28;62.40;100275.75;6093247;23;20155;-79
2022/11/20 08:46:46;;;;;;;14.60;8.23;;;;;;;0.68;61.95;100335.38;6117588;23;20029;-82
2022/11/20 08:49:15;;;;;;;21.55;8.75;;;;;;;-0.05;62.44;100176.34;6092030;23;20017;-81
2022/11/20 08:51:42;;;;;;;17.10;8.27;;;;;;;0.27;62.51;100226.25;6142809;23;20028;-82
2022/11/20 08:54:09;;;;;;;15.82;8.48;;;;;;;0.85;61.64;100287.38;6119837;23;20202;-82
2022/11/20 08:56:36;;;;;;;17.02;8.98;;;;;;;0.53;62.00;100216.16;6115227;23;20021;-82
2022/11/20 08:59:06;;;;;;;19.13;10.20;;;;;;;0.74;61.40;100256.22;6120156;23;20021;-78
2022/11/20 09:01:40;;;;;;;17.75;9.57;;;;;;;1.47;60.95;100435.84;6150261;23;20131;-82
2022/11/20 09:04:06;;;;;;;21.40;9.65;;;;;;;0.81;61.21;100314.53;6129098;23;20021;-80
2022/11/20 09:06:39;;;;;;;21.77;11.27;;;;;;;1.24;60.89;100374.28;6151622;23;20068;-82
2022/11/20 09:09:05;;;;;;;21.45;11.98;;;;;;;1.80;61.40;100441.38;6136566;23;20021;-84
2022/11/20 09:11:32;;;;;;;23.50;11.40;;;;;;;1.76;61.30;100434.38;6135982;23;20468;-81
2022/11/20 09:13:58;;;;;;;16.65;9.77;;;;;;;2.00;61.50;100438.66;6155376;23;20459;-78
2022/11/20 09:16:24;;;;;;;18.27;9.52;;;;;;;1.91;60.78;100404.94;6165875;23;20359;-81
2022/11/20 09:18:50;;;;;;;20.60;10.48;;;;;;;2.20;61.04;100443.63;6173732;23;20013;-85
2022/11/20 09:21:17;;;;;;;18.88;10.55;;;;;;;2.27;60.84;100437.91;6143628;23;20017;-80
2022/11/20 09:23:46;;;;;;;17.23;10.15;;;;;;;2.11;60.71;100403.94;6144035;23;20017;-83
2022/11/20 09:26:17;;;;;;;23.95;11.18;;;;;;;1.80;60.29;100379.78;6167519;23;20045;-82
2022/11/20 09:29:04;;;;;;;23.55;11.38;;;;;;;2.18;59.99;100456.41;6120463;23;20020;-82
2022/11/20 09:31:33;;;;;;;30.33;15.15;;;;;;;1.33;60.25;100336.16;6169481;23;20017;-80
2022/11/20 09:34:06;;;;;;;23.60;11.20;;;;;;;2.16;60.50;100480.28;6170057;23;20017;-81
2022/11/20 09:36:33;;;;;;;19.80;10.70;;;;;;;1.01;60.02;100270.84;6148402;23;20043;-82
2022/11/20 09:39:02;;;;;;;22.35;11.13;;;;;;;1.55;60.07;100348.91;6144906;23;20021;-82
2022/11/20 09:42:00;;;;;;;21.73;10.00;;;;;;;2.37;60.05;100472.47;6144078;23;20074;-81
2022/11/20 09:45:00;;;;;;;20.60;10.23;;;;;;;2.39;59.46;100478.56;6192678;23;20043;-84
2022/11/20 09:47:58;;;;;;;19.70;9.15;;;;;;;2.52;60.00;100469.56;6145410;23;20013;-86
2022/11/20 09:51:41;;;;;;;20.80;10.18;;;;;;;2.59;59.94;100461.25;6056401;23;20451;-81
2022/11/20 09:54:21;;;;;;;20.48;10.23;;;;;;;2.06;59.43;100373.81;6146671;23;20017;-81
2022/11/20 09:56:58;;;;;;;21.10;9.77;;;;;;;2.24;59.54;100407.81;6198959;23;20079;-80
2022/11/20 09:59:40;;;;;;;19.90;10.52;;;;;;;2.38;58.96;100436.56;6126553;23;20032;-82
2022/11/20 10:02:23;;;;;;;23.98;10.23;;;;;;;2.16;58.73;100419.53;6175757;23;20043;-82
2022/11/20 10:05:23;;;;;;;21.63;9.63;;;;;;;2.03;59.47;100419.91;6138130;23;20021;-84
2022/11/20 10:07:58;;;;;;;20.30;9.55;;;;;;;2.02;59.28;100416.47;6195933;23;20524;-82
2022/11/20 10:10:42;;;;;;;19.77;9.77;;;;;;;2.23;59.27;100446.31;6121494;23;20040;-81
2022/11/20 10:13:49;;;;;;;28.17;10.65;;;;;;;2.47;59.25;100497.66;6147542;23;20021;-82
2022/11/20 10:16:48;;;;;;;24.10;10.55;;;;;;;2.37;59.03;100500.75;6151768;23;20013;-80
2022/11/20 10:19:47;;;;;;;24.30;10.20;;;;;;;1.43;58.87;100347.66;6172986;23;20017;-81
2022/11/20 10:22:47;;;;;;;25.13;10.30;;;;;;;2.20;59.17;100503.59;6170978;23;20112;-80
2022/11/20 10:25:31;;;;;;;28.58;12.68;;;;;;;2.25;58.92;100514.88;6172527;23;20029;-78
2022/11/20 10:28:09;;;;;;;25.40;10.87;;;;;;;2.33;59.82;100498.88;6174292;23;20021;-79
2022/11/20 10:30:41;;;;;;;24.90;10.90;;;;;;;1.84;59.25;100431.22;6157760;23;19997;-78
2022/11/20 10:33:21;;;;;;;24.02;11.55;;;;;;;2.23;58.94;100502.81;6160401;23;20040;-78
2022/11/20 10:36:32;;;;;;;28.60;12.32;;;;;;;1.63;58.58;100422.78;6186099;23;20073;-80
2022/11/20 10:39:37;;;;;;;24.85;11.82;;;;;;;1.37;59.15;100397.81;6179078;23;20024;-78
2022/11/20 10:42:16;;;;;;;29.83;12.50;;;;;;;0.92;59.04;100355.09;6154983;23;20025;-80
2022/11/20 10:45:02;;;;;;;28.35;12.73;;;;;;;1.89;59.68;100538.38;6160072;23;20016;-82
2022/11/20 10:47:32;;;;;;;24.65;11.95;;;;;;;0.42;59.85;100297.69;6183791;23;20036;-80
2022/11/20 10:50:04;;;;;;;32.97;12.48;;;;;;;1.11;59.64;100447.28;6181997;23;20009;-81
2022/11/20 10:52:47;;;;;;;31.88;12.85;;;;;;;1.64;59.29;100534.00;6148838;23;20017;-83
2022/11/20 10:55:32;;;;;;;30.40;12.18;;;;;;;1.62;60.08;100526.22;6174882;23;20095;-80
2022/11/20 10:58:10;;;;;;;29.52;13.18;;;;;;;1.70;59.75;100523.94;6149844;23;20017;-84
2022/11/20 11:00:39;;;;;;;29.02;12.13;;;;;;;0.27;60.05;100280.00;6172604;23;20013;-81
2022/11/20 11:03:28;;;;;;;32.38;12.68;;;;;;;1.27;60.65;100438.53;6151839;23;20021;-81
2022/11/20 11:06:39;;;;;;;27.80;12.27;;;;;;;1.71;60.41;100533.41;6203408;23;20013;-82
2022/11/20 11:09:20;;;;;;;30.15;12.45;;;;;;;0.32;60.45;100305.78;6175043;23;20043;-80
2022/11/20 11:12:00;;;;;;;30.27;13.75;;;;;;;0.22;60.37;100290.88;6139110;23;20032;-82
2022/11/20 11:14:27;;;;;;;28.05;11.95;;;;;;;0.83;60.20;100348.78;6061992;23;20066;-85
2022/11/20 11:17:01;;;;;;;37.08;14.40;;;;;;;1.78;60.26;100517.44;6085533;23;20018;-80
2022/11/20 11:20:31;;;;;;;30.77;13.35;;;;;;;1.10;60.51;100425.03;6094192;23;20095;-79
2022/11/20 11:23:34;;;;;;;27.55;11.88;;;;;;;1.08;60.28;100405.28;6094434;23;20022;-79
2022/11/20 11:26:06;;;;;;;30.98;11.32;;;;;;;0.99;60.74;100381.03;6112361;23;20022;-78
2022/11/20 11:28:33;;;;;;;26.77;11.68;;;;;;;1.77;61.07;100502.84;6040398;23;20014;-82
2022/11/20 11:31:13;;;;;;;29.77;12.23;;;;;;;1.52;60.69;100424.06;6064287;23;20025;-78
2022/11/20 11:33:44;;;;;;;26.70;13.20;;;;;;;1.43;60.55;100416.00;6041637;23;20018;-82
2022/11/20 11:36:24;;;;;;;27.13;12.50;;;;;;;2.03;60.94;100513.22;6060125;23;20010;-77
2022/11/20 11:39:35;;;;;;;26.98;12.68;;;;;;;1.46;60.54;100424.69;6108660;23;20481;-82
2022/11/20 11:42:04;;;;;;;20.95;10.60;;;;;;;0.92;60.36;100317.50;6052439;23;20069;-79
2022/11/20 11:47:56;;;;;;;19.77;9.32;;;;;;;1.22;60.97;100392.97;6166156;23;20017;-83
2022/11/20 11:50:35;;;;;;;20.52;9.13;;;;;;;1.35;60.54;100405.47;6146015;23;20033;-81
2022/11/20 11:53:06;;;;;;;18.02;8.57;;;;;;;1.36;60.21;100422.59;6120190;23;20014;-80
2022/11/20 11:55:53;;;;;;;18.27;9.10;;;;;;;0.71;60.23;100315.88;6114060;23;20018;-82
2022/11/20 11:58:29;;;;;;;16.13;8.85;;;;;;;2.09;60.63;100546.84;6118815;23;20056;-80
2022/11/20 12:01:40;;;;;;;16.63;8.68;;;;;;;1.46;59.91;100450.34;6169511;23;20085;-79